createdAt,value
2022-09-20T00:02:17.520Z,54.30
2022-09-20T00:07:19.931Z,54.10
2022-09-20T00:12:22.123Z,54.30
2022-09-20T00:17:24.407Z,54.20
2022-09-20T00:22:27.616Z,54.20
2022-09-20T00:27:29.843Z,54.30
2022-09-20T00:32:32.263Z,54.40
2022-09-20T00:37:37.374Z,54.30
2022-09-20T00:42:39.693Z,54.30
2022-09-20T00:47:49.767Z,54.10
2022-09-20T00:53:00.372Z,54.60
2022-09-20T00:58:02.916Z,54.70
2022-09-20T01:03:09.110Z,55.00
2022-09-20T01:08:12.249Z,55.10
2022-09-20T01:13:14.780Z,54.80
2022-09-20T01:18:18.297Z,55.20
2022-09-20T01:28:31.596Z,55.00
2022-09-20T01:45:09.321Z,55.50
2022-09-20T02:27:32.350Z,55.70
2022-09-20T02:38:01.191Z,56.20
2022-09-20T02:48:29.507Z,56.00
2022-09-20T03:10:29.182Z,55.90
2022-09-20T03:15:49.006Z,55.60
2022-09-20T03:21:22.841Z,55.40
2022-09-20T03:42:47.554Z,55.90
2022-09-20T03:53:40.545Z,55.70
2022-09-20T04:14:42.058Z,55.50
2022-09-20T04:20:02.665Z,56.20
2022-09-20T04:25:16.138Z,56.50
2022-09-20T04:30:22.924Z,56.30
2022-09-20T04:41:16.600Z,56.70
2022-09-20T04:46:58.598Z,56.40
2022-09-20T05:19:08.281Z,56.40
2022-09-20T05:40:13.196Z,56.30
2022-09-20T05:45:49.522Z,56.20
2022-09-20T05:51:04.948Z,56.20
2022-09-20T06:01:26.781Z,56.80
2022-09-20T06:06:45.264Z,56.90
2022-09-20T06:22:34.335Z,57.10
2022-09-20T06:38:58.371Z,56.60
2022-09-20T06:44:02.918Z,54.70
2022-09-20T06:49:08.295Z,57.60
2022-09-20T06:54:17.812Z,56.40
2022-09-20T06:59:20.031Z,53.50
2022-09-20T07:04:26.998Z,53.40
2022-09-20T07:09:29.292Z,51.10
2022-09-20T07:14:31.509Z,44.70
2022-09-20T07:19:34.003Z,45.50
2022-09-20T07:24:36.480Z,47.60
2022-09-20T07:29:38.746Z,50.50
2022-09-20T07:34:41.368Z,46.80
2022-09-20T07:39:43.692Z,44.80
2022-09-20T07:44:46.549Z,43.90
2022-09-20T07:49:48.774Z,44.30
2022-09-20T07:54:51.002Z,42.20
2022-09-20T07:59:53.191Z,43.00
2022-09-20T08:04:55.543Z,43.10
2022-09-20T08:09:57.860Z,40.40
2022-09-20T08:15:01.575Z,42.20
2022-09-20T08:20:03.999Z,40.30
2022-09-20T08:25:07.134Z,41.30
2022-09-20T08:30:10.436Z,40.10
2022-09-20T08:35:13.642Z,41.20
2022-09-20T08:40:16.082Z,39.50
2022-09-20T08:45:33.735Z,39.80
2022-09-20T08:50:37.551Z,38.00
2022-09-20T08:55:41.745Z,39.40
2022-09-20T09:00:46.951Z,39.20
2022-09-20T09:05:52.929Z,39.70
2022-09-20T09:10:59.397Z,39.30
2022-09-20T09:16:10.002Z,39.20
2022-09-20T09:21:23.437Z,38.80
2022-09-20T09:26:25.985Z,38.20
2022-09-20T09:31:28.325Z,37.30
2022-09-20T09:36:31.088Z,38.30
2022-09-20T09:41:35.756Z,37.70
2022-09-20T09:46:40.420Z,37.20
2022-09-20T09:52:02.162Z,37.50
2022-09-20T10:02:57.995Z,36.90
2022-09-20T10:13:48.855Z,37.90
2022-09-20T10:19:24.808Z,38.10
2022-09-20T10:35:21.210Z,37.80
2022-09-20T10:51:19.126Z,37.70
2022-09-20T11:01:49.433Z,37.60
2022-09-20T11:17:44.276Z,37.50
2022-09-20T11:22:52.678Z,37.80
2022-09-20T11:28:01.779Z,37.80
2022-09-20T11:33:18.767Z,37.70
2022-09-20T11:43:38.904Z,38.20
2022-09-20T11:59:29.674Z,38.60
2022-09-20T12:04:35.915Z,37.30
2022-09-20T12:09:42.675Z,37.50
2022-09-20T12:14:55.053Z,37.60
2022-09-20T12:19:57.251Z,37.60
2022-09-20T12:25:37.210Z,37.60
2022-09-20T12:30:39.420Z,37.50
2022-09-20T12:36:14.538Z,37.10
2022-09-20T12:41:27.855Z,37.30
2022-09-20T12:46:43.622Z,37.10
2022-09-20T12:52:11.537Z,37.20
2022-09-20T12:57:27.430Z,37.10
2022-09-20T13:08:13.430Z,37.60
2022-09-20T13:13:27.666Z,37.50
2022-09-20T13:18:30.289Z,37.50
2022-09-20T13:23:44.410Z,37.30
2022-09-20T13:28:52.812Z,36.80
2022-09-20T13:33:55.611Z,36.90
2022-09-20T13:38:58.771Z,36.80
2022-09-20T13:44:02.078Z,36.70
2022-09-20T13:59:36.603Z,37.10
2022-09-20T14:04:39.426Z,37.20
2022-09-20T14:09:41.700Z,37.10
2022-09-20T14:14:44.834Z,37.40
2022-09-20T14:19:49.971Z,37.30
2022-09-20T14:30:38.600Z,37.40
2022-09-20T14:35:48.151Z,37.40
2022-09-20T14:40:51.954Z,37.30
2022-09-20T14:45:57.593Z,37.10
2022-09-20T14:51:22.296Z,37.40
2022-09-20T14:56:35.502Z,37.30
2022-09-20T15:01:42.485Z,37.20
2022-09-20T15:06:45.024Z,37.20
2022-09-20T15:11:50.040Z,37.30
2022-09-20T15:16:52.559Z,37.30
2022-09-20T15:21:54.862Z,36.90
2022-09-20T15:26:57.200Z,37.10
2022-09-20T15:31:59.841Z,37.10
2022-09-20T15:37:02.100Z,37.00
2022-09-20T15:42:04.653Z,37.10
2022-09-20T15:47:07.910Z,37.10
2022-09-20T15:52:11.474Z,37.40
2022-09-20T15:57:13.765Z,37.30
2022-09-20T16:02:16.153Z,37.30
2022-09-20T16:07:18.993Z,37.30
2022-09-20T16:12:22.802Z,37.20
2022-09-20T16:17:45.058Z,37.30
2022-09-20T16:22:47.422Z,37.30
2022-09-20T16:27:49.621Z,37.40
2022-09-20T16:32:53.045Z,37.40
2022-09-20T16:37:55.295Z,37.40
2022-09-20T16:42:58.715Z,37.40
2022-09-20T16:48:06.390Z,37.50
2022-09-20T16:53:10.611Z,37.60
2022-09-20T16:58:12.855Z,37.60
2022-09-20T17:03:15.966Z,37.90
2022-09-20T17:08:18.221Z,37.80
2022-09-20T17:13:20.471Z,37.90
2022-09-20T17:18:22.915Z,37.90
2022-09-20T17:23:25.261Z,38.00
2022-09-20T17:28:27.511Z,38.10
2022-09-20T17:33:31.168Z,38.10
2022-09-20T17:38:35.007Z,38.10
2022-09-20T17:43:38.243Z,38.30
2022-09-20T17:48:41.860Z,38.30
2022-09-20T17:53:44.795Z,38.30
2022-09-20T17:58:47.579Z,38.40
2022-09-20T18:03:50.238Z,38.50
2022-09-20T18:08:56.418Z,38.50
2022-09-20T18:13:59.833Z,39.10
2022-09-20T18:19:02.406Z,39.00
2022-09-20T18:24:06.915Z,38.80
2022-09-20T18:29:12.528Z,39.00
2022-09-20T18:39:27.424Z,39.30
2022-09-20T18:44:34.334Z,39.10
2022-09-20T18:49:36.740Z,39.30
2022-09-20T18:54:39.141Z,39.40
2022-09-20T18:59:46.638Z,39.80
2022-09-20T19:20:49.911Z,39.90
2022-09-20T19:26:06.142Z,40.20
2022-09-20T19:31:21.089Z,40.10
2022-09-20T19:36:25.203Z,40.10
2022-09-20T19:51:49.946Z,40.10
2022-09-20T19:56:56.241Z,40.80
2022-09-20T20:01:58.969Z,41.00
2022-09-20T20:18:16.475Z,40.60
2022-09-20T20:28:52.721Z,40.80
2022-09-20T20:33:55.594Z,41.40
2022-09-20T20:38:57.802Z,41.50
2022-09-20T20:44:00.152Z,41.50
2022-09-20T20:49:03.723Z,41.60
2022-09-20T20:54:06.062Z,41.70
2022-09-20T20:59:08.419Z,41.70
2022-09-20T21:04:11.515Z,41.80
2022-09-20T21:09:13.769Z,42.10
2022-09-20T21:14:16.555Z,42.10
2022-09-20T21:19:19.143Z,42.20
2022-09-20T21:24:21.391Z,42.40
2022-09-20T21:29:23.599Z,42.40
2022-09-20T21:34:25.928Z,42.50
2022-09-20T21:39:28.117Z,42.70
2022-09-20T21:44:30.318Z,42.70
2022-09-20T21:49:32.514Z,42.70
2022-09-20T21:54:34.727Z,42.80
2022-09-20T21:59:37.594Z,43.00
2022-09-20T22:04:39.794Z,43.10
2022-09-20T22:09:41.962Z,43.30
2022-09-20T22:14:44.618Z,43.20
2022-09-20T22:19:47.181Z,43.20
2022-09-20T22:24:49.469Z,43.60
2022-09-20T22:29:51.688Z,43.60
2022-09-20T22:34:53.996Z,43.60
2022-09-20T22:39:56.245Z,43.60
2022-09-20T22:45:00.355Z,43.60
2022-09-20T22:50:02.567Z,43.60
2022-09-20T22:55:05.329Z,43.60
2022-09-20T23:00:08.367Z,43.80
2022-09-20T23:05:11.137Z,43.80
2022-09-20T23:10:13.372Z,43.70
2022-09-20T23:15:16.053Z,43.80
2022-09-20T23:20:18.280Z,43.90
2022-09-20T23:25:20.687Z,44.30
2022-09-20T23:30:23.360Z,44.10
2022-09-20T23:35:45.609Z,44.10
2022-09-20T23:40:47.880Z,43.80
2022-09-20T23:45:50.214Z,44.20
2022-09-20T23:50:52.702Z,44.20
2022-09-20T23:55:55.114Z,44.50
